sensor_id;sensor_type;location;lat;lon;timestamp;pressure;altitude;pressure_sealevel;temperature;humidity
29215;BME280;16252;49.816;7.964;2023-02-14T00:01:13;101960.09;;;4.56;58.84
29215;BME280;16252;49.816;7.964;2023-02-14T00:03:39;101976.00;;;4.56;58.89
29215;BME280;16252;49.816;7.964;2023-02-14T00:06:10;101972.44;;;4.57;59.20
29215;BME280;16252;49.816;7.964;2023-02-14T00:08:36;101940.25;;;4.32;58.89
29215;BME280;16252;49.816;7.964;2023-02-14T00:11:02;101948.19;;;4.32;59.09
29215;BME280;16252;49.816;7.964;2023-02-14T00:13:28;101957.00;;;4.34;59.10
29215;BME280;16252;49.816;7.964;2023-02-14T00:15:54;101985.91;;;4.47;59.09
29215;BME280;16252;49.816;7.964;2023-02-14T00:18:19;101971.00;;;4.41;59.13
29215;BME280;16252;49.816;7.964;2023-02-14T00:20:45;101976.25;;;4.43;59.11
29215;BME280;16252;49.816;7.964;2023-02-14T00:23:10;101912.47;;;4.07;58.88
29215;BME280;16252;49.816;7.964;2023-02-14T00:25:35;101918.63;;;4.07;59.09
29215;BME280;16252;49.816;7.964;2023-02-14T00:28:00;101948.41;;;4.20;59.01
29215;BME280;16252;49.816;7.964;2023-02-14T00:30:26;101982.69;;;4.31;58.99
29215;BME280;16252;49.816;7.964;2023-02-14T00:32:51;101960.81;;;4.20;59.35
29215;BME280;16252;49.816;7.964;2023-02-14T00:35:16;101950.34;;;4.12;59.19
29215;BME280;16252;49.816;7.964;2023-02-14T00:37:42;101936.38;;;4.02;59.37
29215;BME280;16252;49.816;7.964;2023-02-14T00:40:07;101877.84;;;3.69;59.35
29215;BME280;16252;49.816;7.964;2023-02-14T00:42:33;101971.25;;;4.27;59.49
29215;BME280;16252;49.816;7.964;2023-02-14T00:44:58;101965.22;;;4.21;59.54
29215;BME280;16252;49.816;7.964;2023-02-14T00:47:24;101763.53;;;2.99;59.19
29215;BME280;16252;49.816;7.964;2023-02-14T00:49:49;101756.59;;;2.91;59.42
29215;BME280;16252;49.816;7.964;2023-02-14T00:52:14;101880.59;;;3.63;59.37
29215;BME280;16252;49.816;7.964;2023-02-14T00:54:40;101815.03;;;3.28;59.33
29215;BME280;16252;49.816;7.964;2023-02-14T00:57:05;101979.41;;;4.18;59.21
29215;BME280;16252;49.816;7.964;2023-02-14T00:59:30;101954.91;;;4.05;58.78
29215;BME280;16252;49.816;7.964;2023-02-14T01:01:56;101974.19;;;4.12;58.59
29215;BME280;16252;49.816;7.964;2023-02-14T01:04:21;101959.44;;;3.97;58.70
29215;BME280;16252;49.816;7.964;2023-02-14T01:06:46;101940.22;;;3.86;58.79
29215;BME280;16252;49.816;7.964;2023-02-14T01:09:11;101942.88;;;3.86;58.85
29215;BME280;16252;49.816;7.964;2023-02-14T01:11:37;101974.38;;;4.01;58.97
29215;BME280;16252;49.816;7.964;2023-02-14T01:14:02;101964.78;;;3.96;59.03
29215;BME280;16252;49.816;7.964;2023-02-14T01:16:28;101942.09;;;3.79;59.02
29215;BME280;16252;49.816;7.964;2023-02-14T01:18:54;101924.69;;;3.66;58.94
29215;BME280;16252;49.816;7.964;2023-02-14T01:21:20;101971.03;;;3.91;58.95
29215;BME280;16252;49.816;7.964;2023-02-14T01:23:48;101929.06;;;3.67;59.04
29215;BME280;16252;49.816;7.964;2023-02-14T01:26:14;101969.34;;;3.87;59.23
29215;BME280;16252;49.816;7.964;2023-02-14T01:28:41;101973.75;;;3.87;59.35
29215;BME280;16252;49.816;7.964;2023-02-14T01:31:10;101968.41;;;3.90;59.24
29215;BME280;16252;49.816;7.964;2023-02-14T01:33:37;101966.72;;;3.86;59.18
29215;BME280;16252;49.816;7.964;2023-02-14T01:36:02;101931.72;;;3.67;59.13
29215;BME280;16252;49.816;7.964;2023-02-14T01:38:28;101939.66;;;3.67;59.21
29215;BME280;16252;49.816;7.964;2023-02-14T01:40:53;101936.09;;;3.69;59.02
29215;BME280;16252;49.816;7.964;2023-02-14T01:43:18;101950.13;;;3.75;59.08
29215;BME280;16252;49.816;7.964;2023-02-14T01:45:44;101947.44;;;3.76;58.96
29215;BME280;16252;49.816;7.964;2023-02-14T01:48:09;101961.50;;;3.81;58.88
29215;BME280;16252;49.816;7.964;2023-02-14T01:50:39;101951.94;;;3.73;58.89
29215;BME280;16252;49.816;7.964;2023-02-14T01:53:09;101951.94;;;3.71;58.97
29215;BME280;16252;49.816;7.964;2023-02-14T01:55:39;101948.63;;;3.60;58.72
29215;BME280;16252;49.816;7.964;2023-02-14T01:58:14;101961.75;;;3.64;58.34
29215;BME280;16252;49.816;7.964;2023-02-14T02:00:42;101944.50;;;3.40;58.45
29215;BME280;16252;49.816;7.964;2023-02-14T02:03:34;101959.41;;;3.47;58.39
29215;BME280;16252;49.816;7.964;2023-02-14T02:06:30;101956.84;;;3.41;58.47
29215;BME280;16252;49.816;7.964;2023-02-14T02:11:32;101971.09;;;3.33;58.62
29215;BME280;16252;49.816;7.964;2023-02-14T02:13:57;101951.88;;;3.20;58.70
29215;BME280;16252;49.816;7.964;2023-02-14T02:25:09;101973.75;;;3.31;58.79
29215;BME280;16252;49.816;7.964;2023-02-14T02:28:07;101978.19;;;3.29;58.77
29215;BME280;16252;49.816;7.964;2023-02-14T02:34:07;101965.97;;;3.22;59.07
29215;BME280;16252;49.816;7.964;2023-02-14T02:36:50;101958.03;;;3.19;59.08
29215;BME280;16252;49.816;7.964;2023-02-14T02:39:27;101966.94;;;3.15;59.00
29215;BME280;16252;49.816;7.964;2023-02-14T02:42:24;101944.06;;;3.11;58.89
29215;BME280;16252;49.816;7.964;2023-02-14T02:47:57;101952.81;;;3.16;59.07
29215;BME280;16252;49.816;7.964;2023-02-14T02:50:37;101936.19;;;3.08;59.11
29215;BME280;16252;49.816;7.964;2023-02-14T02:53:38;101944.88;;;3.17;58.93
29215;BME280;16252;49.816;7.964;2023-02-14T02:56:08;101946.66;;;3.14;58.90
29215;BME280;16252;49.816;7.964;2023-02-14T02:58:56;101965.91;;;3.25;58.82
29215;BME280;16252;49.816;7.964;2023-02-14T03:01:27;101925.66;;;3.03;58.69
29215;BME280;16252;49.816;7.964;2023-02-14T03:03:58;101958.84;;;3.25;58.84
29215;BME280;16252;49.816;7.964;2023-02-14T03:06:44;101958.09;;;3.16;58.69
29215;BME280;16252;49.816;7.964;2023-02-14T03:17:42;101941.34;;;3.15;59.29
29215;BME280;16252;49.816;7.964;2023-02-14T03:20:16;101936.06;;;3.15;59.34
29215;BME280;16252;49.816;7.964;2023-02-14T03:22:59;101941.25;;;3.21;59.39
29215;BME280;16252;49.816;7.964;2023-02-14T03:25:40;101959.63;;;3.32;59.33
29215;BME280;16252;49.816;7.964;2023-02-14T03:30:54;101957.00;;;3.32;59.56
29215;BME280;16252;49.816;7.964;2023-02-14T03:33:47;101957.78;;;3.37;59.43
29215;BME280;16252;49.816;7.964;2023-02-14T03:36:35;101949.91;;;3.33;59.45
29215;BME280;16252;49.816;7.964;2023-02-14T03:39:14;101952.63;;;3.28;59.42
29215;BME280;16252;49.816;7.964;2023-02-14T03:41:47;101949.00;;;3.35;59.57
29215;BME280;16252;49.816;7.964;2023-02-14T03:44:21;101940.22;;;3.32;59.41
29215;BME280;16252;49.816;7.964;2023-02-14T03:47:02;101942.72;;;3.41;59.66
29215;BME280;16252;49.816;7.964;2023-02-14T03:49:33;101951.53;;;3.43;59.78
29215;BME280;16252;49.816;7.964;2023-02-14T03:52:01;101963.78;;;3.50;59.71
29215;BME280;16252;49.816;7.964;2023-02-14T03:54:27;101955.09;;;3.42;59.94
29215;BME280;16252;49.816;7.964;2023-02-14T03:57:37;101935.66;;;3.41;59.90
29215;BME280;16252;49.816;7.964;2023-02-14T04:00:06;101943.66;;;3.40;60.04
29215;BME280;16252;49.816;7.964;2023-02-14T04:02:36;101955.78;;;3.52;60.17
29215;BME280;16252;49.816;7.964;2023-02-14T04:05:08;101971.59;;;3.56;60.34
29215;BME280;16252;49.816;7.964;2023-02-14T04:07:45;101970.63;;;3.63;60.44
29215;BME280;16252;49.816;7.964;2023-02-14T04:10:11;101958.50;;;3.48;60.44
29215;BME280;16252;49.816;7.964;2023-02-14T04:12:36;101956.69;;;3.51;60.37
29215;BME280;16252;49.816;7.964;2023-02-14T04:15:02;101932.19;;;3.38;60.37
29215;BME280;16252;49.816;7.964;2023-02-14T04:17:27;101967.16;;;3.58;60.39
29215;BME280;16252;49.816;7.964;2023-02-14T04:20:11;101954.97;;;3.50;60.23
29215;BME280;16252;49.816;7.964;2023-02-14T04:22:36;101972.41;;;3.61;60.42
29215;BME280;16252;49.816;7.964;2023-02-14T04:25:02;101959.25;;;3.57;60.36
29215;BME280;16252;49.816;7.964;2023-02-14T04:27:27;101971.53;;;3.61;60.20
29215;BME280;16252;49.816;7.964;2023-02-14T04:29:52;101972.38;;;3.63;60.43
29215;BME280;16252;49.816;7.964;2023-02-14T04:32:19;101969.81;;;3.58;60.19
29215;BME280;16252;49.816;7.964;2023-02-14T04:34:45;101974.25;;;3.58;60.22
29215;BME280;16252;49.816;7.964;2023-02-14T04:37:11;101979.41;;;3.64;60.19
29215;BME280;16252;49.816;7.964;2023-02-14T04:39:37;101943.69;;;3.37;60.18
29215;BME280;16252;49.816;7.964;2023-02-14T04:42:03;101956.81;;;3.44;60.22
29215;BME280;16252;49.816;7.964;2023-02-14T04:44:29;101973.44;;;3.53;60.18
29215;BME280;16252;49.816;7.964;2023-02-14T04:46:55;101962.97;;;3.43;60.08
29215;BME280;16252;49.816;7.964;2023-02-14T04:49:20;101970.00;;;3.46;60.15
29215;BME280;16252;49.816;7.964;2023-02-14T04:51:46;101980.50;;;3.52;60.21
29215;BME280;16252;49.816;7.964;2023-02-14T04:54:11;101976.16;;;3.48;60.35
29215;BME280;16252;49.816;7.964;2023-02-14T04:56:37;101977.06;;;3.45;60.51
29215;BME280;16252;49.816;7.964;2023-02-14T04:59:02;101962.25;;;3.34;60.62
29215;BME280;16252;49.816;7.964;2023-02-14T05:01:28;101972.75;;;3.38;60.63
29215;BME280;16252;49.816;7.964;2023-02-14T05:03:53;101970.97;;;3.40;60.87
29215;BME280;16252;49.816;7.964;2023-02-14T05:06:18;101939.41;;;3.26;60.81
29215;BME280;16252;49.816;7.964;2023-02-14T05:08:43;101949.06;;;3.29;61.15
29215;BME280;16252;49.816;7.964;2023-02-14T05:11:09;101968.34;;;3.39;60.76
29215;BME280;16252;49.816;7.964;2023-02-14T05:13:34;101956.19;;;3.27;61.09
29215;BME280;16252;49.816;7.964;2023-02-14T05:15:59;101949.13;;;3.26;61.18
29215;BME280;16252;49.816;7.964;2023-02-14T05:18:25;101953.56;;;3.24;61.13
29215;BME280;16252;49.816;7.964;2023-02-14T05:20:51;101919.50;;;3.01;61.37
29215;BME280;16252;49.816;7.964;2023-02-14T05:23:17;101949.19;;;3.23;61.34
29215;BME280;16252;49.816;7.964;2023-02-14T05:25:43;101966.78;;;3.27;61.52
29215;BME280;16252;49.816;7.964;2023-02-14T05:28:08;101957.13;;;3.21;61.38
29215;BME280;16252;49.816;7.964;2023-02-14T05:30:35;101958.03;;;3.22;61.73
29215;BME280;16252;49.816;7.964;2023-02-14T05:33:01;101943.13;;;3.15;61.69
29215;BME280;16252;49.816;7.964;2023-02-14T05:35:26;101931.75;;;3.10;61.77
29215;BME280;16252;49.816;7.964;2023-02-14T05:37:52;101944.00;;;3.14;61.62
29215;BME280;16252;49.816;7.964;2023-02-14T05:40:17;101940.53;;;3.12;61.40
29215;BME280;16252;49.816;7.964;2023-02-14T05:42:43;101935.31;;;3.07;61.59
29215;BME280;16252;49.816;7.964;2023-02-14T05:45:08;101951.03;;;3.16;61.71
29215;BME280;16252;49.816;7.964;2023-02-14T05:47:34;101941.53;;;3.04;61.60
29215;BME280;16252;49.816;7.964;2023-02-14T05:49:59;101939.75;;;3.05;61.55
29215;BME280;16252;49.816;7.964;2023-02-14T05:52:24;101937.09;;;3.05;61.88
29215;BME280;16252;49.816;7.964;2023-02-14T05:54:50;101942.31;;;3.10;61.99
29215;BME280;16252;49.816;7.964;2023-02-14T05:57:15;101953.75;;;3.12;61.92
29215;BME280;16252;49.816;7.964;2023-02-14T05:59:40;101944.09;;;3.09;62.08
29215;BME280;16252;49.816;7.964;2023-02-14T06:02:06;101945.03;;;3.07;62.08
29215;BME280;16252;49.816;7.964;2023-02-14T06:04:31;101945.88;;;3.07;62.07
29215;BME280;16252;49.816;7.964;2023-02-14T06:06:56;101899.53;;;2.81;61.79
29215;BME280;16252;49.816;7.964;2023-02-14T06:09:22;101944.97;;;3.08;61.61
29215;BME280;16252;49.816;7.964;2023-02-14T06:11:47;101946.81;;;3.03;61.67
29215;BME280;16252;49.816;7.964;2023-02-14T06:14:12;101959.13;;;3.06;61.65
29215;BME280;16252;49.816;7.964;2023-02-14T06:16:38;101964.38;;;3.09;61.58
29215;BME280;16252;49.816;7.964;2023-02-14T06:19:03;101952.16;;;3.00;61.62
29215;BME280;16252;49.816;7.964;2023-02-14T06:21:28;101922.41;;;2.82;61.50
29215;BME280;16252;49.816;7.964;2023-02-14T06:23:53;101971.50;;;3.03;61.31
29215;BME280;16252;49.816;7.964;2023-02-14T06:26:18;101964.56;;;2.93;61.62
29215;BME280;16252;49.816;7.964;2023-02-14T06:28:44;101971.59;;;2.96;61.72
29215;BME280;16252;49.816;7.964;2023-02-14T06:31:15;101971.56;;;2.99;61.70
29215;BME280;16252;49.816;7.964;2023-02-14T06:33:40;101980.44;;;2.93;61.76
29215;BME280;16252;49.816;7.964;2023-02-14T06:36:06;101985.72;;;2.96;61.79
29215;BME280;16252;49.816;7.964;2023-02-14T06:38:31;101980.50;;;2.90;62.08
29215;BME280;16252;49.816;7.964;2023-02-14T06:41:04;101958.56;;;2.82;62.29
29215;BME280;16252;49.816;7.964;2023-02-14T06:43:30;101993.56;;;3.01;61.96
29215;BME280;16252;49.816;7.964;2023-02-14T06:45:56;102003.31;;;2.99;61.78
29215;BME280;16252;49.816;7.964;2023-02-14T06:48:21;101970.94;;;2.78;61.99
29215;BME280;16252;49.816;7.964;2023-02-14T06:50:46;102004.19;;;2.99;62.00
29215;BME280;16252;49.816;7.964;2023-02-14T06:53:12;101981.41;;;2.89;62.03
29215;BME280;16252;49.816;7.964;2023-02-14T06:55:37;101993.66;;;2.96;61.87
29215;BME280;16252;49.816;7.964;2023-02-14T06:58:02;101945.50;;;2.68;62.06
29215;BME280;16252;49.816;7.964;2023-02-14T07:00:28;101986.63;;;2.92;62.08
29215;BME280;16252;49.816;7.964;2023-02-14T07:02:53;102004.09;;;3.06;62.09
29215;BME280;16252;49.816;7.964;2023-02-14T07:05:18;101963.81;;;2.85;62.02
29215;BME280;16252;49.816;7.964;2023-02-14T07:07:44;101858.88;;;2.24;62.13
29215;BME280;16252;49.816;7.964;2023-02-14T07:10:09;102011.06;;;3.13;62.21
29215;BME280;16252;49.816;7.964;2023-02-14T07:12:35;102004.03;;;3.12;62.09
29215;BME280;16252;49.816;7.964;2023-02-14T07:15:08;101998.75;;;3.09;62.61
29215;BME280;16252;49.816;7.964;2023-02-14T07:17:34;101883.34;;;2.38;62.42
29215;BME280;16252;49.816;7.964;2023-02-14T07:19:59;101906.84;;;2.61;62.29
29215;BME280;16252;49.816;7.964;2023-02-14T07:22:25;101982.88;;;3.09;62.32
29215;BME280;16252;49.816;7.964;2023-02-14T07:24:50;101968.09;;;2.95;62.25
29215;BME280;16252;49.816;7.964;2023-02-14T07:27:15;101952.22;;;2.95;62.30
29215;BME280;16252;49.816;7.964;2023-02-14T07:29:41;101980.28;;;3.06;62.65
29215;BME280;16252;49.816;7.964;2023-02-14T07:32:06;101989.88;;;3.13;62.59
29215;BME280;16252;49.816;7.964;2023-02-14T07:34:31;101884.00;;;2.55;62.48
29215;BME280;16252;49.816;7.964;2023-02-14T07:36:57;101892.75;;;2.60;62.57
29215;BME280;16252;49.816;7.964;2023-02-14T07:39:22;101963.50;;;3.10;62.79
29215;BME280;16252;49.816;7.964;2023-02-14T07:41:48;101980.91;;;3.24;62.75
29215;BME280;16252;49.816;7.964;2023-02-14T07:44:13;101970.28;;;3.26;62.81
29215;BME280;16252;49.816;7.964;2023-02-14T07:46:38;102008.78;;;3.50;62.87
29215;BME280;16252;49.816;7.964;2023-02-14T07:49:04;102001.75;;;3.46;62.92
29215;BME280;16252;49.816;7.964;2023-02-14T07:51:29;102002.56;;;3.53;63.03
29215;BME280;16252;49.816;7.964;2023-02-14T07:53:54;101997.31;;;3.48;63.14
29215;BME280;16252;49.816;7.964;2023-02-14T07:56:20;101993.75;;;3.49;62.92
29215;BME280;16252;49.816;7.964;2023-02-14T07:58:45;101999.00;;;3.55;62.86
29215;BME280;16252;49.816;7.964;2023-02-14T08:01:11;101988.59;;;3.43;62.91
29215;BME280;16252;49.816;7.964;2023-02-14T08:03:36;102017.41;;;3.61;62.62
29215;BME280;16252;49.816;7.964;2023-02-14T08:06:03;101993.00;;;3.42;62.60
29215;BME280;16252;49.816;7.964;2023-02-14T08:08:29;102022.75;;;3.58;62.48
29215;BME280;16252;49.816;7.964;2023-02-14T08:10:55;102011.38;;;3.53;62.35
29215;BME280;16252;49.816;7.964;2023-02-14T08:13:21;102009.75;;;3.44;62.17
29215;BME280;16252;49.816;7.964;2023-02-14T08:15:46;101986.16;;;3.26;62.23
29215;BME280;16252;49.816;7.964;2023-02-14T08:18:48;101965.22;;;3.11;62.43
29215;BME280;16252;49.816;7.964;2023-02-14T08:21:13;102011.66;;;3.32;62.47
29215;BME280;16252;49.816;7.964;2023-02-14T08:23:40;101964.41;;;3.07;62.48
29215;BME280;16252;49.816;7.964;2023-02-14T08:26:06;101960.09;;;2.98;62.23
29215;BME280;16252;49.816;7.964;2023-02-14T08:28:31;102017.00;;;3.29;62.69
29215;BME280;16252;49.816;7.964;2023-02-14T08:30:57;101954.03;;;2.92;62.65
29215;BME280;16252;49.816;7.964;2023-02-14T08:33:22;101974.94;;;3.10;62.54
29215;BME280;16252;49.816;7.964;2023-02-14T08:35:50;102009.84;;;3.37;62.88
29215;BME280;16252;49.816;7.964;2023-02-14T08:38:15;101988.88;;;3.23;62.68
29215;BME280;16252;49.816;7.964;2023-02-14T08:40:40;102007.22;;;3.35;62.94
29215;BME280;16252;49.816;7.964;2023-02-14T08:43:06;102015.88;;;3.46;62.87
29215;BME280;16252;49.816;7.964;2023-02-14T08:45:32;102006.13;;;3.50;62.96
29215;BME280;16252;49.816;7.964;2023-02-14T08:48:05;101977.19;;;3.38;63.12
29215;BME280;16252;49.816;7.964;2023-02-14T08:50:31;102015.72;;;3.57;62.88
29215;BME280;16252;49.816;7.964;2023-02-14T08:52:56;101989.38;;;3.50;62.72
29215;BME280;16252;49.816;7.964;2023-02-14T08:55:21;102011.19;;;3.65;62.55
29215;BME280;16252;49.816;7.964;2023-02-14T08:57:47;101963.91;;;3.41;62.65
29215;BME280;16252;49.816;7.964;2023-02-14T09:00:13;102022.44;;;3.78;62.59
29215;BME280;16252;49.816;7.964;2023-02-14T09:02:39;102018.03;;;3.79;62.58
29215;BME280;16252;49.816;7.964;2023-02-14T09:05:05;102027.63;;;3.87;62.75
29215;BME280;16252;49.816;7.964;2023-02-14T09:07:32;102011.81;;;3.80;62.72
29215;BME280;16252;49.816;7.964;2023-02-14T09:09:57;102008.22;;;3.85;62.40
29215;BME280;16252;49.816;7.964;2023-02-14T09:12:22;101995.03;;;3.82;62.56
29215;BME280;16252;49.816;7.964;2023-02-14T09:14:47;102007.13;;;3.97;62.54
29215;BME280;16252;49.816;7.964;2023-02-14T09:17:14;101990.41;;;3.95;62.74
29215;BME280;16252;49.816;7.964;2023-02-14T09:19:39;101986.81;;;3.98;62.49
29215;BME280;16252;49.816;7.964;2023-02-14T09:22:06;102009.50;;;4.14;62.54
29215;BME280;16252;49.816;7.964;2023-02-14T09:24:33;102016.34;;;4.26;62.46
29215;BME280;16252;49.816;7.964;2023-02-14T09:26:59;101989.22;;;4.10;62.63
29215;BME280;16252;49.816;7.964;2023-02-14T09:29:25;102013.66;;;4.29;62.82
29215;BME280;16252;49.816;7.964;2023-02-14T09:31:52;102000.47;;;4.26;62.60
29215;BME280;16252;49.816;7.964;2023-02-14T09:34:17;102001.19;;;4.32;62.74
29215;BME280;16252;49.816;7.964;2023-02-14T09:36:42;102000.25;;;4.38;62.66
29215;BME280;16252;49.816;7.964;2023-02-14T09:39:08;101969.53;;;4.26;62.78
29215;BME280;16252;49.816;7.964;2023-02-14T09:41:50;101973.63;;;4.43;62.81
29215;BME280;16252;49.816;7.964;2023-02-14T09:44:31;101964.72;;;4.47;63.08
29215;BME280;16252;49.816;7.964;2023-02-14T09:47:06;101982.97;;;4.61;63.17
29215;BME280;16252;49.816;7.964;2023-02-14T09:49:37;101975.88;;;4.63;62.97
29215;BME280;16252;49.816;7.964;2023-02-14T09:52:05;101979.28;;;4.69;62.96
29215;BME280;16252;49.816;7.964;2023-02-14T09:54:33;102001.00;;;4.88;63.10
29215;BME280;16252;49.816;7.964;2023-02-14T09:59:50;102010.41;;;5.03;63.10
29215;BME280;16252;49.816;7.964;2023-02-14T10:05:34;101985.75;;;4.99;62.91
29215;BME280;16252;49.816;7.964;2023-02-14T10:11:06;101962.09;;;4.89;63.37
29215;BME280;16252;49.816;7.964;2023-02-14T10:16:32;101952.28;;;4.92;63.18
29215;BME280;16252;49.816;7.964;2023-02-14T10:19:07;101998.56;;;5.19;63.03
29215;BME280;16252;49.816;7.964;2023-02-14T10:21:51;101973.06;;;5.12;63.36
29215;BME280;16252;49.816;7.964;2023-02-14T10:24:24;101992.25;;;5.25;63.55
29215;BME280;16252;49.816;7.964;2023-02-14T10:26:54;101988.56;;;5.31;63.50
29215;BME280;16252;49.816;7.964;2023-02-14T10:29:22;101992.91;;;5.35;63.40
29215;BME280;16252;49.816;7.964;2023-02-14T10:31:59;101997.13;;;5.45;63.42
29215;BME280;16252;49.816;7.964;2023-02-14T10:34:34;101996.16;;;5.48;63.40
29215;BME280;16252;49.816;7.964;2023-02-14T10:37:17;101964.56;;;5.37;63.20
29215;BME280;16252;49.816;7.964;2023-02-14T10:40:20;101982.66;;;5.57;63.31
29215;BME280;16252;49.816;7.964;2023-02-14T10:43:13;101987.00;;;5.61;63.31
29215;BME280;16252;49.816;7.964;2023-02-14T10:45:52;101977.22;;;5.61;63.21
29215;BME280;16252;49.816;7.964;2023-02-14T10:49:07;101971.03;;;5.62;63.09
29215;BME280;16252;49.816;7.964;2023-02-14T10:51:42;101975.41;;;5.63;63.17
29215;BME280;16252;49.816;7.964;2023-02-14T10:59:25;101951.72;;;5.54;63.12
29215;BME280;16252;49.816;7.964;2023-02-14T11:01:51;101961.88;;;5.74;62.64
29215;BME280;16252;49.816;7.964;2023-02-14T11:04:19;101908.06;;;5.32;63.08
29215;BME280;16252;49.816;7.964;2023-02-14T11:06:45;101958.66;;;5.61;63.25
29215;BME280;16252;49.816;7.964;2023-02-14T11:09:13;101957.75;;;5.62;63.29
29215;BME280;16252;49.816;7.964;2023-02-14T11:11:58;101893.84;;;5.34;63.38
29215;BME280;16252;49.816;7.964;2023-02-14T11:14:25;101948.88;;;5.62;63.26
29215;BME280;16252;49.816;7.964;2023-02-14T11:16:53;101879.03;;;5.24;63.29
29215;BME280;16252;49.816;7.964;2023-02-14T11:19:21;101930.44;;;5.57;63.42
29215;BME280;16252;49.816;7.964;2023-02-14T11:21:48;101936.44;;;5.64;63.31
29215;BME280;16252;49.816;7.964;2023-02-14T11:24:39;101937.25;;;5.68;63.31
29215;BME280;16252;49.816;7.964;2023-02-14T11:32:19;101930.06;;;5.71;63.36
29215;BME280;16252;49.816;7.964;2023-02-14T11:39:46;101873.56;;;5.30;63.07
29215;BME280;16252;49.816;7.964;2023-02-14T11:42:11;101909.38;;;5.50;63.19
29215;BME280;16252;49.816;7.964;2023-02-14T11:44:36;101905.88;;;5.48;63.13
29215;BME280;16252;49.816;7.964;2023-02-14T11:47:26;101859.47;;;5.28;63.51
29215;BME280;16252;49.816;7.964;2023-02-14T11:49:59;101923.22;;;5.62;63.51
29215;BME280;16252;49.816;7.964;2023-02-14T11:52:27;101913.50;;;5.61;63.56
29215;BME280;16252;49.816;7.964;2023-02-14T11:54:56;101908.25;;;5.60;63.44
29215;BME280;16252;49.816;7.964;2023-02-14T11:57:27;101912.59;;;5.62;63.51
29215;BME280;16252;49.816;7.964;2023-02-14T11:59:58;101912.53;;;5.65;63.54
29215;BME280;16252;49.816;7.964;2023-02-14T12:02:42;101845.22;;;5.32;63.46
29215;BME280;16252;49.816;7.964;2023-02-14T12:07:45;101871.28;;;5.51;63.68
29215;BME280;16252;49.816;7.964;2023-02-14T12:13:34;101905.00;;;5.83;63.59
29215;BME280;16252;49.816;7.964;2023-02-14T12:20:54;101881.09;;;5.81;63.63
29215;BME280;16252;49.816;7.964;2023-02-14T12:23:29;101868.97;;;5.71;63.55
29215;BME280;16252;49.816;7.964;2023-02-14T12:28:59;101841.75;;;5.63;63.48
29215;BME280;16252;49.816;7.964;2023-02-14T12:31:26;101852.28;;;5.66;63.22
29215;BME280;16252;49.816;7.964;2023-02-14T12:33:51;101852.41;;;5.61;63.29
29215;BME280;16252;49.816;7.964;2023-02-14T12:39:03;101859.84;;;5.81;63.75
29215;BME280;16252;49.816;7.964;2023-02-14T12:44:46;101835.31;;;5.72;63.68
29215;BME280;16252;49.816;7.964;2023-02-14T12:55:32;101808.72;;;5.73;63.68
29215;BME280;16252;49.816;7.964;2023-02-14T12:58:11;101836.53;;;5.93;63.80
29215;BME280;16252;49.816;7.964;2023-02-14T13:01:25;101838.09;;;6.01;63.61
29215;BME280;16252;49.816;7.964;2023-02-14T13:06:45;101805.88;;;5.79;63.79
29215;BME280;16252;49.816;7.964;2023-02-14T13:12:27;101810.94;;;5.90;63.57
29215;BME280;16252;49.816;7.964;2023-02-14T13:15:18;101797.66;;;5.89;63.60
29215;BME280;16252;49.816;7.964;2023-02-14T13:17:50;101802.16;;;5.86;63.56
29215;BME280;16252;49.816;7.964;2023-02-14T13:20:32;101810.00;;;5.91;63.59
29215;BME280;16252;49.816;7.964;2023-02-14T13:23:04;101816.84;;;6.00;63.71
29215;BME280;16252;49.816;7.964;2023-02-14T13:25:35;101825.66;;;6.02;63.73
29215;BME280;16252;49.816;7.964;2023-02-14T13:28:08;101814.16;;;6.01;63.67
29215;BME280;16252;49.816;7.964;2023-02-14T13:30:36;101790.63;;;5.88;63.59
29215;BME280;16252;49.816;7.964;2023-02-14T13:33:09;101803.63;;;5.98;63.69
29215;BME280;16252;49.816;7.964;2023-02-14T13:35:38;101781.81;;;5.85;63.42
29215;BME280;16252;49.816;7.964;2023-02-14T13:38:07;101804.38;;;6.03;63.87
29215;BME280;16252;49.816;7.964;2023-02-14T13:40:37;101786.03;;;5.94;63.42
29215;BME280;16252;49.816;7.964;2023-02-14T13:43:02;101762.59;;;5.77;63.51
29215;BME280;16252;49.816;7.964;2023-02-14T13:48:27;101802.72;;;5.99;63.81
29215;BME280;16252;49.816;7.964;2023-02-14T13:51:01;101765.19;;;5.79;63.58
29215;BME280;16252;49.816;7.964;2023-02-14T13:55:58;101779.53;;;5.72;63.45
29215;BME280;16252;49.816;7.964;2023-02-14T13:58:24;101743.81;;;5.52;63.43
29215;BME280;16252;49.816;7.964;2023-02-14T14:00:51;101751.50;;;5.61;63.68
29215;BME280;16252;49.816;7.964;2023-02-14T14:06:11;101774.94;;;5.78;63.69
29215;BME280;16252;49.816;7.964;2023-02-14T14:08:43;101703.56;;;5.35;63.70
29215;BME280;16252;49.816;7.964;2023-02-14T14:22:06;101785.25;;;5.89;63.79
29215;BME280;16252;49.816;7.964;2023-02-14T14:24:33;101742.69;;;5.59;63.74
29215;BME280;16252;49.816;7.964;2023-02-14T14:27:23;101779.94;;;5.89;63.89
29215;BME280;16252;49.816;7.964;2023-02-14T14:29:53;101771.34;;;5.79;63.87
29215;BME280;16252;49.816;7.964;2023-02-14T14:32:29;101783.56;;;5.86;63.76
29215;BME280;16252;49.816;7.964;2023-02-14T14:34:56;101780.22;;;5.80;63.60
29215;BME280;16252;49.816;7.964;2023-02-14T14:37:30;101778.38;;;5.82;63.71
29215;BME280;16252;49.816;7.964;2023-02-14T14:39:58;101775.81;;;5.79;63.79
29215;BME280;16252;49.816;7.964;2023-02-14T14:42:26;101761.78;;;5.74;63.60
29215;BME280;16252;49.816;7.964;2023-02-14T14:45:26;101756.53;;;5.72;63.86
29215;BME280;16252;49.816;7.964;2023-02-14T14:47:55;101741.81;;;5.59;63.78
29215;BME280;16252;49.816;7.964;2023-02-14T14:50:26;101765.28;;;5.76;63.80
29215;BME280;16252;49.816;7.964;2023-02-14T14:52:55;101748.84;;;5.61;63.90
29215;BME280;16252;49.816;7.964;2023-02-14T14:55:28;101750.50;;;5.65;63.83
29215;BME280;16252;49.816;7.964;2023-02-14T14:57:56;101757.53;;;5.68;63.81
29215;BME280;16252;49.816;7.964;2023-02-14T15:00:28;101750.50;;;5.65;63.96
29215;BME280;16252;49.816;7.964;2023-02-14T15:05:39;101768.75;;;5.78;63.70